Centerlisle, New York
Current Conditions -  °F | °C
As of 6:53 PM on Saturday 22 Nov 2014 (Local Time) from KBGM Reporting Station
Light Rain Light Rain  
Wind Chill: 26°   Ceiling: 1800
Heat Index: 36°   Visibility: 10mi
Dew Point: 28°   Wind: 16mph
Humidity: 73%   Direction: 210°SSW
Pressure: 30.07"   Gusts: 26mph
Location:  42.3343°N, 76.0474°W
Report Text: KBGM 222353Z 21014G23KT 10SM -RA OVC018 02/M02 A3007 RMK AO2 RAB41 SLP205 P0000 60000 T00221022 10033 20022 58002
Loading
Personal Weather Stations






























Interactive Weather Map New forecast layout! Learn more

10-Day Weather Forecast

Advertisements
Track Severe Weather on mobile